Time;durP1;ratioP1;P1;durP2;ratioP2;P2;SDS_P1;SDS_P2;PMS_P1;PMS_P2;Temp;Humidity;BMP_temperature;BMP_pressure;BME280_temperature;BME280_humidity;BME280_pressure;Samples;Min_cycle;Max_cycle;Signal;HPM_P1;HPM_P2
2022/06/28 00:00:16;;;;;;;;;;;20.40;79.60;;;;;;5042289;28;20723;-77
2022/06/28 00:02:44;;;;;;;;;;;20.40;79.70;;;;;;5038913;28;19928;-78
2022/06/28 00:05:11;;;;;;;;;;;20.40;79.80;;;;;;5038639;28;19940;-81
2022/06/28 00:07:37;;;;;;;;;;;20.30;79.80;;;;;;5043852;28;19956;-78
2022/06/28 00:10:04;;;;;;;;;;;20.30;80.60;;;;;;5043015;28;19933;-78
2022/06/28 00:12:31;;;;;;;;;;;20.30;80.00;;;;;;5040300;28;19963;-77
2022/06/28 00:17:42;;;;;;;;;;;20.20;80.00;;;;;;5041260;28;19955;-78
2022/06/28 00:20:11;;;;;;;;;;;20.20;80.20;;;;;;5044404;28;19974;-79
2022/06/28 00:22:38;;;;;;;;;;;20.20;80.20;;;;;;5041524;28;19932;-78
2022/06/28 00:25:05;;;;;;;;;;;20.20;80.30;;;;;;5042952;28;19928;-78
2022/06/28 00:27:32;;;;;;;;;;;20.20;80.30;;;;;;5042404;28;19929;-78
2022/06/28 00:29:59;;;;;;;;;;;20.20;80.40;;;;;;5043712;28;19929;-79
2022/06/28 00:32:26;;;;;;;;;;;20.10;80.40;;;;;;5042710;28;19933;-79
2022/06/28 00:34:52;;;;;;;;;;;20.10;80.60;;;;;;5040779;28;19928;-78
2022/06/28 00:37:20;;;;;;;;;;;20.10;80.70;;;;;;5042026;28;19933;-80
2022/06/28 00:39:47;;;;;;;;;;;20.10;80.90;;;;;;5042325;28;20015;-79
2022/06/28 00:42:14;;;;;;;;;;;20.00;80.80;;;;;;5039065;28;19935;-79
2022/06/28 00:44:41;;;;;;;;;;;20.00;80.90;;;;;;5038834;28;20467;-80
2022/06/28 00:47:09;;;;;;;;;;;20.00;81.00;;;;;;5042408;28;20396;-78
2022/06/28 00:49:39;;;;;;;;;;;20.00;81.10;;;;;;5041514;28;19950;-78
2022/06/28 00:52:06;;;;;;;;;;;19.90;81.50;;;;;;5040011;28;19933;-78
2022/06/28 00:54:34;;;;;;;;;;;19.90;81.20;;;;;;5039316;28;19951;-78
2022/06/28 00:57:01;;;;;;;;;;;19.90;81.30;;;;;;5041227;28;19935;-78
2022/06/28 00:59:28;;;;;;;;;;;19.90;81.50;;;;;;5041358;28;20418;-79
2022/06/28 01:01:55;;;;;;;;;;;19.90;81.40;;;;;;5042422;28;20377;-78
2022/06/28 01:04:21;;;;;;;;;;;19.80;81.50;;;;;;5041397;28;19935;-78
2022/06/28 01:06:48;;;;;;;;;;;19.80;81.60;;;;;;5040984;28;19933;-79
2022/06/28 01:09:15;;;;;;;;;;;19.80;81.60;;;;;;5039990;28;19936;-77
2022/06/28 01:11:43;;;;;;;;;;;19.80;81.70;;;;;;5038985;28;19929;-79
2022/06/28 01:14:10;;;;;;;;;;;19.70;81.60;;;;;;5040229;28;19933;-81
2022/06/28 01:16:37;;;;;;;;;;;19.70;81.80;;;;;;5035246;28;19936;-78
2022/06/28 01:19:05;;;;;;;;;;;19.60;81.80;;;;;;5039479;28;19928;-78
2022/06/28 01:21:33;;;;;;;;;;;19.60;82.00;;;;;;5037011;28;20292;-78
2022/06/28 01:24:02;;;;;;;;;;;19.60;82.10;;;;;;5040121;28;20320;-78
2022/06/28 01:26:30;;;;;;;;;;;19.60;82.20;;;;;;5041939;28;19992;-78
2022/06/28 01:28:57;;;;;;;;;;;19.60;82.20;;;;;;5039109;28;19929;-78
2022/06/28 01:31:24;;;;;;;;;;;19.60;82.30;;;;;;5040767;28;19928;-77
2022/06/28 01:33:52;;;;;;;;;;;19.50;82.30;;;;;;5038756;28;20328;-78
2022/06/28 01:36:19;;;;;;;;;;;19.50;83.10;;;;;;5038945;28;20459;-77
2022/06/28 01:38:46;;;;;;;;;;;19.50;82.30;;;;;;5042907;28;19932;-78
2022/06/28 01:41:32;;;;;;;;;;;19.50;82.40;;;;;;5039703;28;20305;-78
2022/06/28 01:43:59;;;;;;;;;;;19.40;82.30;;;;;;5040306;28;19936;-78
2022/06/28 01:46:26;;;;;;;;;;;19.40;82.40;;;;;;5040823;28;19932;-78
2022/06/28 01:48:54;;;;;;;;;;;19.40;82.50;;;;;;5041033;28;19994;-79
2022/06/28 01:51:20;;;;;;;;;;;19.40;82.60;;;;;;5040224;28;19936;-78
2022/06/28 01:53:47;;;;;;;;;;;19.40;82.50;;;;;;5037207;28;20031;-78
2022/06/28 01:56:16;;;;;;;;;;;19.30;82.70;;;;;;5040533;28;19929;-77
2022/06/28 01:58:42;;;;;;;;;;;19.30;82.70;;;;;;5039662;28;20027;-78
2022/06/28 02:01:09;;;;;;;;;;;19.20;82.70;;;;;;5039466;28;20522;-78
2022/06/28 02:03:36;;;;;;;;;;;19.20;82.70;;;;;;5037955;28;19925;-77
2022/06/28 02:06:03;;;;;;;;;;;19.20;82.80;;;;;;5041223;28;19982;-78
2022/06/28 02:08:30;;;;;;;;;;;19.20;82.80;;;;;;5036898;28;19928;-77
2022/06/28 02:10:58;;;;;;;;;;;19.20;83.00;;;;;;5038995;28;19933;-77
2022/06/28 02:13:26;;;;;;;;;;;19.10;82.90;;;;;;5040811;28;19932;-79
2022/06/28 02:15:53;;;;;;;;;;;19.10;82.90;;;;;;5040695;28;20324;-79
2022/06/28 02:18:19;;;;;;;;;;;19.10;83.00;;;;;;5037556;28;19929;-78
2022/06/28 02:20:48;;;;;;;;;;;19.10;83.00;;;;;;5038633;28;21858;-78
2022/06/28 02:23:15;;;;;;;;;;;19.10;83.10;;;;;;5038954;28;19955;-79
2022/06/28 02:25:42;;;;;;;;;;;19.00;83.20;;;;;;5038328;28;20035;-79
2022/06/28 02:28:09;;;;;;;;;;;19.00;83.00;;;;;;5040069;28;20438;-79
2022/06/28 02:30:37;;;;;;;;;;;19.00;83.10;;;;;;5042134;28;19983;-78
2022/06/28 02:33:04;;;;;;;;;;;19.00;83.00;;;;;;5041198;28;19932;-79
2022/06/28 02:40:59;;;;;;;;;;;18.90;83.10;;;;;;5037813;28;19935;-79
2022/06/28 02:43:26;;;;;;;;;;;18.90;83.10;;;;;;5038762;28;19987;-79
2022/06/28 02:45:54;;;;;;;;;;;18.80;83.10;;;;;;5040273;28;21840;-78
2022/06/28 02:48:20;;;;;;;;;;;18.80;83.20;;;;;;5041836;28;19933;-79
2022/06/28 02:50:47;;;;;;;;;;;18.80;83.20;;;;;;5043336;28;20464;-80
2022/06/28 02:53:14;;;;;;;;;;;18.70;83.00;;;;;;5046745;28;19929;-78
2022/06/28 02:55:40;;;;;;;;;;;18.70;83.10;;;;;;5040846;28;19936;-78
2022/06/28 02:58:07;;;;;;;;;;;18.70;83.20;;;;;;5040577;28;19936;-78
2022/06/28 03:00:33;;;;;;;;;;;18.60;83.20;;;;;;5041661;28;20324;-79
2022/06/28 03:03:02;;;;;;;;;;;18.60;83.20;;;;;;5036760;28;20371;-78
2022/06/28 03:05:28;;;;;;;;;;;18.60;84.00;;;;;;5038817;28;20043;-78
2022/06/28 03:07:55;;;;;;;;;;;18.60;83.30;;;;;;5038903;28;19925;-77
2022/06/28 03:10:22;;;;;;;;;;;18.60;83.30;;;;;;5040000;28;19932;-78
2022/06/28 03:12:48;;;;;;;;;;;18.50;83.30;;;;;;5040450;28;19972;-79
2022/06/28 03:15:15;;;;;;;;;;;18.50;83.30;;;;;;5037495;28;19940;-78
2022/06/28 03:17:42;;;;;;;;;;;18.50;83.30;;;;;;5037867;28;20018;-79
2022/06/28 03:20:11;;;;;;;;;;;18.50;83.40;;;;;;5039876;28;19933;-80
2022/06/28 03:22:38;;;;;;;;;;;18.40;83.20;;;;;;5037438;28;19971;-78
2022/06/28 03:25:05;;;;;;;;;;;18.40;83.30;;;;;;5036997;28;19928;-79
2022/06/28 03:27:33;;;;;;;;;;;18.40;83.20;;;;;;5039608;28;19928;-78
2022/06/28 03:30:00;;;;;;;;;;;18.30;83.20;;;;;;5033268;28;19975;-78
2022/06/28 03:32:27;;;;;;;;;;;18.30;83.40;;;;;;5040025;28;19929;-77
2022/06/28 03:34:54;;;;;;;;;;;18.30;83.40;;;;;;5039017;28;19943;-78
2022/06/28 03:37:22;;;;;;;;;;;18.30;83.30;;;;;;5036863;28;19933;-77
2022/06/28 03:39:49;;;;;;;;;;;18.30;83.40;;;;;;5034558;28;19933;-78
2022/06/28 03:42:16;;;;;;;;;;;18.20;83.30;;;;;;5032382;28;19935;-77
2022/06/28 03:44:43;;;;;;;;;;;18.20;83.50;;;;;;5038551;28;20669;-78
2022/06/28 03:47:10;;;;;;;;;;;18.20;83.50;;;;;;5043901;28;19933;-78
2022/06/28 03:49:36;;;;;;;;;;;18.20;83.50;;;;;;5036948;28;19933;-78
2022/06/28 03:52:03;;;;;;;;;;;18.10;83.30;;;;;;5036804;28;19968;-78
2022/06/28 03:54:32;;;;;;;;;;;18.10;83.30;;;;;;5032403;28;19982;-78
2022/06/28 03:56:58;;;;;;;;;;;18.10;83.40;;;;;;5032013;28;19929;-78
2022/06/28 03:59:25;;;;;;;;;;;18.10;83.40;;;;;;5033798;28;19933;-77
2022/06/28 04:01:52;;;;;;;;;;;18.10;83.30;;;;;;5034650;28;19928;-78
2022/06/28 04:04:19;;;;;;;;;;;18.00;83.30;;;;;;5039952;28;20444;-77
2022/06/28 04:06:46;;;;;;;;;;;18.00;83.30;;;;;;5039173;28;20613;-77
2022/06/28 04:09:13;;;;;;;;;;;18.00;83.40;;;;;;5032129;28;19928;-77
2022/06/28 04:11:41;;;;;;;;;;;17.90;83.30;;;;;;5036506;28;19975;-77
2022/06/28 04:14:13;;;;;;;;;;;17.90;83.30;;;;;;5031173;28;20039;-78
2022/06/28 04:16:40;;;;;;;;;;;17.90;83.30;;;;;;5038027;28;19937;-78
2022/06/28 04:19:07;;;;;;;;;;;17.90;83.40;;;;;;5033355;28;19977;-78
2022/06/28 04:21:34;;;;;;;;;;;17.90;83.40;;;;;;5038270;28;20638;-77
2022/06/28 04:24:01;;;;;;;;;;;17.80;83.40;;;;;;5034630;28;20035;-77
2022/06/28 04:26:28;;;;;;;;;;;17.80;83.40;;;;;;5035495;28;19933;-79
2022/06/28 04:28:56;;;;;;;;;;;17.80;83.40;;;;;;5039798;28;19929;-77
2022/06/28 04:31:23;;;;;;;;;;;17.80;83.50;;;;;;5044204;28;20011;-78
2022/06/28 04:33:51;;;;;;;;;;;17.80;83.50;;;;;;5050021;28;19942;-78
2022/06/28 04:36:17;;;;;;;;;;;17.70;83.40;;;;;;5047001;28;20408;-77
2022/06/28 04:38:47;;;;;;;;;;;17.70;83.60;;;;;;5048584;28;19986;-77
2022/06/28 04:41:14;;;;;;;;;;;17.70;83.60;;;;;;5038665;28;20072;-78
2022/06/28 04:43:41;;;;;;;;;;;17.70;83.50;;;;;;5034996;28;19946;-79
2022/06/28 04:46:08;;;;;;;;;;;17.70;83.60;;;;;;5036116;28;19933;-78
2022/06/28 04:48:35;;;;;;;;;;;17.70;83.70;;;;;;5034387;28;20305;-78
2022/06/28 04:51:10;;;;;;;;;;;17.70;83.60;;;;;;5033612;28;19932;-77
2022/06/28 04:53:37;;;;;;;;;;;17.60;83.70;;;;;;5034777;28;20405;-77
2022/06/28 04:56:04;;;;;;;;;;;17.60;83.80;;;;;;5028021;28;19936;-77
2022/06/28 04:58:31;;;;;;;;;;;17.60;83.90;;;;;;5036422;28;19975;-79
2022/06/28 05:00:58;;;;;;;;;;;17.50;83.90;;;;;;5035333;28;20692;-78
2022/06/28 05:03:27;;;;;;;;;;;17.60;84.00;;;;;;5039578;28;19967;-78
2022/06/28 05:05:54;;;;;;;;;;;17.50;84.00;;;;;;5040574;28;20673;-77
2022/06/28 05:08:20;;;;;;;;;;;17.50;84.00;;;;;;5036714;28;19940;-77
2022/06/28 05:10:47;;;;;;;;;;;17.50;84.00;;;;;;5033203;28;19979;-77
2022/06/28 05:13:14;;;;;;;;;;;17.50;84.10;;;;;;5038942;28;19929;-78
2022/06/28 05:15:41;;;;;;;;;;;17.50;84.20;;;;;;5043067;28;20363;-78
2022/06/28 05:18:08;;;;;;;;;;;17.50;84.20;;;;;;5032327;28;19940;-77
2022/06/28 05:20:36;;;;;;;;;;;17.50;84.30;;;;;;5034601;28;19972;-78
2022/06/28 05:23:03;;;;;;;;;;;17.50;84.30;;;;;;5035526;28;19929;-78
2022/06/28 05:25:30;;;;;;;;;;;17.40;84.40;;;;;;5032320;28;19972;-77
2022/06/28 05:27:57;;;;;;;;;;;17.40;84.30;;;;;;5037615;28;20431;-78
2022/06/28 05:30:24;;;;;;;;;;;17.50;84.40;;;;;;5030779;28;21275;-77
2022/06/28 05:32:51;;;;;;;;;;;17.50;84.40;;;;;;5036661;28;20023;-77
2022/06/28 05:35:17;;;;;;;;;;;17.40;84.40;;;;;;5034010;28;19935;-76
2022/06/28 05:37:46;;;;;;;;;;;17.40;84.40;;;;;;5033691;28;21112;-78
2022/06/28 05:40:13;;;;;;;;;;;17.40;84.40;;;;;;5037871;28;20035;-70
2022/06/28 05:42:40;;;;;;;;;;;17.50;84.40;;;;;;5032153;28;19975;-69
2022/06/28 05:45:07;;;;;;;;;;;17.40;84.40;;;;;;5027535;28;20404;-71
2022/06/28 05:47:34;;;;;;;;;;;17.50;84.40;;;;;;5035606;28;19933;-70
2022/06/28 05:50:01;;;;;;;;;;;17.50;84.40;;;;;;5029147;28;20674;-69
2022/06/28 05:52:28;;;;;;;;;;;17.50;84.40;;;;;;5030368;28;19947;-68
2022/06/28 05:54:56;;;;;;;;;;;17.50;84.40;;;;;;5034737;28;19929;-69
2022/06/28 05:57:23;;;;;;;;;;;17.50;84.40;;;;;;5030264;28;19964;-69
2022/06/28 05:59:50;;;;;;;;;;;17.50;84.50;;;;;;5032689;28;20672;-69
2022/06/28 06:02:17;;;;;;;;;;;17.50;84.40;;;;;;5033015;28;19929;-67
2022/06/28 06:04:43;;;;;;;;;;;17.50;84.40;;;;;;5037236;28;20062;-68
2022/06/28 06:07:10;;;;;;;;;;;17.50;84.40;;;;;;5021952;28;19933;-69
2022/06/28 06:09:36;;;;;;;;;;;17.50;84.40;;;;;;5029837;28;19929;-68
2022/06/28 06:12:05;;;;;;;;;;;17.60;84.50;;;;;;5027243;28;20387;-68
2022/06/28 06:14:32;;;;;;;;;;;17.60;84.50;;;;;;5029344;28;19933;-75
2022/06/28 06:16:59;;;;;;;;;;;17.60;84.60;;;;;;5024990;28;19929;-76
2022/06/28 06:19:26;;;;;;;;;;;17.60;84.60;;;;;;5025893;28;19929;-76
2022/06/28 06:21:52;;;;;;;;;;;17.60;84.60;;;;;;5024609;28;20388;-76
2022/06/28 06:24:20;;;;;;;;;;;17.60;84.60;;;;;;5023334;28;19936;-79
2022/06/28 06:26:46;;;;;;;;;;;17.60;84.60;;;;;;5032158;28;20800;-76
2022/06/28 06:29:14;;;;;;;;;;;17.60;84.50;;;;;;5028118;28;21215;-76
2022/06/28 06:31:41;;;;;;;;;;;17.70;84.50;;;;;;5033482;28;19944;-79
2022/06/28 06:34:07;;;;;;;;;;;17.70;84.50;;;;;;5038129;28;20126;-76
2022/06/28 06:36:35;;;;;;;;;;;17.70;84.40;;;;;;5030642;28;21342;-76
2022/06/28 06:39:02;;;;;;;;;;;17.70;84.40;;;;;;5025734;28;19988;-75
2022/06/28 06:41:28;;;;;;;;;;;17.70;84.40;;;;;;5028574;28;19932;-76
2022/06/28 06:43:55;;;;;;;;;;;17.70;84.40;;;;;;5024880;28;19929;-75
2022/06/28 06:46:23;;;;;;;;;;;17.80;84.40;;;;;;5023310;28;19939;-75
2022/06/28 06:48:49;;;;;;;;;;;17.70;84.30;;;;;;5024588;28;19932;-75
2022/06/28 06:51:16;;;;;;;;;;;17.80;84.30;;;;;;5021195;28;19928;-74
2022/06/28 06:53:43;;;;;;;;;;;17.80;84.20;;;;;;5023905;28;19929;-77
2022/06/28 06:56:10;;;;;;;;;;;17.80;84.10;;;;;;5026836;28;19936;-76
2022/06/28 06:58:36;;;;;;;;;;;17.90;84.20;;;;;;5025136;28;19940;-75
2022/06/28 07:01:03;;;;;;;;;;;17.90;84.00;;;;;;5026467;28;20304;-75
2022/06/28 07:03:31;;;;;;;;;;;17.90;83.80;;;;;;5029189;28;19940;-76
2022/06/28 07:05:57;;;;;;;;;;;17.90;83.70;;;;;;5023721;28;19955;-75
2022/06/28 07:08:24;;;;;;;;;;;17.90;83.70;;;;;;5026266;28;19940;-75
2022/06/28 07:10:51;;;;;;;;;;;17.90;83.40;;;;;;5034467;28;19929;-75
2022/06/28 07:13:17;;;;;;;;;;;18.00;83.40;;;;;;5033627;28;20664;-74
2022/06/28 07:15:44;;;;;;;;;;;18.00;83.30;;;;;;5036237;28;19937;-76
2022/06/28 07:18:10;;;;;;;;;;;18.00;83.20;;;;;;5022409;28;19929;-75
2022/06/28 07:20:38;;;;;;;;;;;18.00;83.30;;;;;;5027152;28;19940;-78
2022/06/28 07:23:05;;;;;;;;;;;18.00;83.20;;;;;;5026768;28;19933;-74
2022/06/28 07:25:32;;;;;;;;;;;18.00;83.10;;;;;;5025222;28;19933;-73
2022/06/28 07:27:58;;;;;;;;;;;18.10;83.10;;;;;;5031975;28;20314;-75
2022/06/28 07:30:26;;;;;;;;;;;18.10;82.90;;;;;;5035143;28;19932;-74
2022/06/28 07:32:52;;;;;;;;;;;18.10;82.80;;;;;;5038538;28;19968;-75
2022/06/28 07:35:24;;;;;;;;;;;18.10;82.70;;;;;;5037478;28;19936;-74
2022/06/28 07:37:52;;;;;;;;;;;18.10;82.70;;;;;;5028732;28;19933;-75
2022/06/28 07:40:19;;;;;;;;;;;18.10;82.60;;;;;;5026872;28;19942;-75
2022/06/28 07:42:46;;;;;;;;;;;18.20;82.40;;;;;;5029150;28;20393;-73
2022/06/28 07:45:13;;;;;;;;;;;18.20;82.20;;;;;;5031820;28;19968;-75
2022/06/28 07:47:40;;;;;;;;;;;18.20;82.00;;;;;;5030529;28;20369;-75
2022/06/28 07:52:53;;;;;;;;;;;18.30;81.50;;;;;;5031297;28;19958;-77
2022/06/28 07:55:19;;;;;;;;;;;18.30;81.20;;;;;;5023962;28;19929;-75
2022/06/28 07:57:46;;;;;;;;;;;18.30;80.90;;;;;;5029744;28;19929;-75
2022/06/28 08:00:13;;;;;;;;;;;18.40;80.80;;;;;;5034507;28;19932;-77
2022/06/28 08:02:39;;;;;;;;;;;18.40;80.70;;;;;;5033982;28;19936;-76
2022/06/28 08:05:07;;;;;;;;;;;18.40;80.60;;;;;;5036942;28;19948;-76
2022/06/28 08:07:33;;;;;;;;;;;18.40;80.10;;;;;;5039945;28;19929;-76
2022/06/28 08:10:01;;;;;;;;;;;18.50;80.10;;;;;;5038642;28;19935;-76
2022/06/28 08:12:28;;;;;;;;;;;18.50;80.10;;;;;;5037301;28;19929;-76
2022/06/28 08:14:54;;;;;;;;;;;18.50;79.90;;;;;;5035285;28;19929;-75
2022/06/28 08:17:21;;;;;;;;;;;18.50;79.80;;;;;;5036576;28;19940;-77
2022/06/28 08:19:48;;;;;;;;;;;18.50;79.30;;;;;;5033127;28;20406;-75
2022/06/28 08:22:15;;;;;;;;;;;18.50;79.30;;;;;;5036926;28;19935;-75
2022/06/28 08:24:41;;;;;;;;;;;18.60;79.20;;;;;;5039069;28;20197;-75
2022/06/28 08:27:09;;;;;;;;;;;18.60;78.90;;;;;;5038223;28;19933;-76
2022/06/28 08:29:36;;;;;;;;;;;18.70;78.60;;;;;;5034462;28;20483;-77
2022/06/28 08:32:03;;;;;;;;;;;18.70;78.40;;;;;;5035574;28;20023;-75
2022/06/28 08:34:30;;;;;;;;;;;18.70;77.90;;;;;;5036934;28;19939;-76
2022/06/28 08:36:56;;;;;;;;;;;18.80;77.60;;;;;;5039206;28;19925;-76
2022/06/28 08:39:23;;;;;;;;;;;18.80;77.50;;;;;;5035254;28;19928;-78
2022/06/28 08:41:51;;;;;;;;;;;18.80;77.20;;;;;;5036789;28;20754;-76
2022/06/28 08:44:19;;;;;;;;;;;18.90;76.70;;;;;;5036368;28;19933;-75
2022/06/28 08:46:46;;;;;;;;;;;18.90;76.30;;;;;;5034072;28;19936;-76
2022/06/28 08:49:14;;;;;;;;;;;18.90;76.50;;;;;;5034905;28;19933;-76
2022/06/28 08:51:41;;;;;;;;;;;19.00;76.50;;;;;;5034407;28;19932;-76
2022/06/28 08:54:08;;;;;;;;;;;19.00;76.00;;;;;;5031946;28;19936;-77
2022/06/28 08:56:35;;;;;;;;;;;19.10;75.60;;;;;;5035033;28;19933;-76
2022/06/28 08:59:02;;;;;;;;;;;19.10;75.20;;;;;;5034875;28;19940;-76
2022/06/28 09:01:30;;;;;;;;;;;19.20;75.40;;;;;;5031963;28;19925;-77
2022/06/28 09:04:00;;;;;;;;;;;19.20;75.30;;;;;;5035932;28;19933;-76
2022/06/28 09:06:27;;;;;;;;;;;19.20;74.90;;;;;;5037694;28;19929;-76
2022/06/28 09:08:53;;;;;;;;;;;19.20;74.40;;;;;;5036230;28;19940;-76
2022/06/28 09:11:20;;;;;;;;;;;19.30;74.30;;;;;;5036866;28;19940;-76
2022/06/28 09:13:47;;;;;;;;;;;19.40;73.60;;;;;;5034066;28;19929;-77
2022/06/28 09:16:13;;;;;;;;;;;19.40;73.30;;;;;;5033889;28;19935;-75
2022/06/28 09:18:46;;;;;;;;;;;19.40;72.70;;;;;;5035215;28;19936;-78
2022/06/28 09:21:13;;;;;;;;;;;19.40;72.10;;;;;;5033845;28;19932;-80
2022/06/28 09:23:41;;;;;;;;;;;19.50;71.80;;;;;;5036244;28;19933;-76
2022/06/28 09:26:08;;;;;;;;;;;19.50;71.60;;;;;;5032098;28;19932;-77
2022/06/28 09:28:35;;;;;;;;;;;19.60;71.20;;;;;;5037750;28;19933;-77
2022/06/28 09:31:15;;;;;;;;;;;19.60;71.10;;;;;;5035765;28;19932;-76
2022/06/28 09:33:42;;;;;;;;;;;19.70;71.30;;;;;;5030745;28;19933;-77
2022/06/28 09:36:14;;;;;;;;;;;19.70;70.80;;;;;;5040841;28;19936;-76
2022/06/28 09:38:41;;;;;;;;;;;19.80;70.70;;;;;;5041142;28;19929;-78
2022/06/28 09:41:19;;;;;;;;;;;19.90;70.00;;;;;;5043349;28;19937;-77
2022/06/28 09:43:53;;;;;;;;;;;19.90;69.90;;;;;;5034804;28;19931;-77
2022/06/28 09:46:19;;;;;;;;;;;20.00;69.70;;;;;;5035182;28;19928;-77
2022/06/28 09:48:46;;;;;;;;;;;20.00;69.60;;;;;;5037307;28;20459;-77
2022/06/28 09:51:20;;;;;;;;;;;20.10;69.50;;;;;;5041117;28;19933;-76
2022/06/28 09:53:47;;;;;;;;;;;20.10;69.10;;;;;;5035349;28;19928;-77
2022/06/28 09:56:14;;;;;;;;;;;20.20;68.70;;;;;;5036541;28;19931;-77
2022/06/28 09:58:41;;;;;;;;;;;20.20;68.60;;;;;;5038742;28;20420;-79
2022/06/28 10:01:08;;;;;;;;;;;20.40;68.10;;;;;;5036546;28;20475;-77
2022/06/28 10:03:35;;;;;;;;;;;20.50;68.10;;;;;;5038705;28;19929;-77
2022/06/28 10:06:02;;;;;;;;;;;20.50;67.50;;;;;;5039379;28;19935;-77
2022/06/28 10:08:30;;;;;;;;;;;20.60;67.20;;;;;;5036767;28;19924;-76
2022/06/28 10:10:57;;;;;;;;;;;20.60;67.00;;;;;;5030167;28;19928;-77
2022/06/28 10:16:11;;;;;;;;;;;20.80;66.40;;;;;;5029354;28;19935;-76
2022/06/28 10:18:39;;;;;;;;;;;20.90;66.40;;;;;;5030423;28;21872;-78
2022/06/28 10:21:05;;;;;;;;;;;20.90;66.60;;;;;;5033284;28;19928;-76
2022/06/28 10:23:37;;;;;;;;;;;21.00;65.90;;;;;;5035302;28;20018;-77
2022/06/28 10:26:06;;;;;;;;;;;21.10;65.10;;;;;;5033118;28;19944;-79
2022/06/28 10:28:35;;;;;;;;;;;21.20;65.10;;;;;;5038851;28;20277;-77
2022/06/28 10:31:20;;;;;;;;;;;21.30;65.60;;;;;;5034692;28;20047;-77
2022/06/28 10:33:48;;;;;;;;;;;21.30;65.30;;;;;;5029330;28;19960;-77
2022/06/28 10:36:16;;;;;;;;;;;21.40;64.60;;;;;;5027282;28;19932;-80
2022/06/28 10:38:57;;;;;;;;;;;21.50;64.70;;;;;;5028626;28;19994;-79
2022/06/28 10:41:35;;;;;;;;;;;21.60;63.60;;;;;;5025680;28;19932;-78
2022/06/28 10:44:06;;;;;;;;;;;21.60;62.60;;;;;;5024818;28;19929;-77
2022/06/28 10:46:32;;;;;;;;;;;21.70;63.20;;;;;;5027021;28;20629;-81
2022/06/28 10:49:07;;;;;;;;;;;21.70;63.20;;;;;;5027701;28;19936;-78
2022/06/28 10:51:34;;;;;;;;;;;21.90;63.00;;;;;;5025461;28;20300;-78
2022/06/28 10:54:11;;;;;;;;;;;21.90;62.60;;;;;;5029601;28;19935;-77
2022/06/28 10:56:42;;;;;;;;;;;22.00;62.40;;;;;;5031781;28;19929;-79
2022/06/28 10:59:10;;;;;;;;;;;22.10;61.90;;;;;;5036448;28;20902;-81
2022/06/28 11:01:56;;;;;;;;;;;22.20;59.70;;;;;;5031992;28;19932;-79
2022/06/28 11:04:24;;;;;;;;;;;22.20;60.20;;;;;;5033366;28;20024;-78
2022/06/28 11:06:53;;;;;;;;;;;22.40;61.30;;;;;;5034937;28;19937;-81
2022/06/28 11:09:24;;;;;;;;;;;22.40;61.40;;;;;;5034015;28;20019;-78
2022/06/28 11:12:09;;;;;;;;;;;22.40;62.00;;;;;;5035308;28;19929;-78
2022/06/28 11:14:44;;;;;;;;;;;22.50;62.00;;;;;;5033180;28;19929;-78
2022/06/28 11:17:15;;;;;;;;;;;22.60;61.50;;;;;;5032299;28;19956;-79
2022/06/28 11:19:50;;;;;;;;;;;22.60;61.10;;;;;;5036480;28;19933;-81
2022/06/28 11:22:21;;;;;;;;;;;22.70;60.60;;;;;;5038317;28;19928;-78
2022/06/28 11:24:48;;;;;;;;;;;22.80;60.30;;;;;;5034805;28;20730;-78
2022/06/28 11:27:22;;;;;;;;;;;22.90;60.20;;;;;;5037778;28;19933;-79
2022/06/28 11:29:49;;;;;;;;;;;22.90;60.50;;;;;;5034545;28;20051;-78
2022/06/28 11:32:17;;;;;;;;;;;23.00;60.00;;;;;;5035071;28;19932;-78
2022/06/28 11:34:44;;;;;;;;;;;23.10;59.70;;;;;;5033051;28;19932;-79
2022/06/28 11:37:10;;;;;;;;;;;23.10;58.90;;;;;;5035133;28;20397;-78
2022/06/28 11:39:37;;;;;;;;;;;23.20;59.00;;;;;;5034895;28;19929;-78
2022/06/28 11:42:04;;;;;;;;;;;23.30;59.00;;;;;;5034769;28;19960;-78
2022/06/28 11:44:31;;;;;;;;;;;23.30;59.10;;;;;;5036024;28;19928;-78
2022/06/28 11:46:59;;;;;;;;;;;23.40;57.90;;;;;;5035383;28;19936;-78
2022/06/28 11:49:26;;;;;;;;;;;23.40;58.30;;;;;;5035139;28;19968;-79
2022/06/28 11:51:52;;;;;;;;;;;23.50;58.60;;;;;;5036163;28;19933;-79
2022/06/28 11:54:20;;;;;;;;;;;23.60;58.50;;;;;;5040802;28;19935;-80
2022/06/28 11:56:48;;;;;;;;;;;23.60;57.70;;;;;;5038972;28;20733;-79
2022/06/28 11:59:15;;;;;;;;;;;23.60;57.70;;;;;;5042638;28;20115;-80
2022/06/28 12:01:44;;;;;;;;;;;23.70;58.00;;;;;;5042626;28;20454;-82
2022/06/28 12:04:12;;;;;;;;;;;23.80;57.60;;;;;;5043197;28;19928;-79
2022/06/28 12:06:40;;;;;;;;;;;23.80;57.10;;;;;;5040197;28;19929;-78
2022/06/28 12:09:08;;;;;;;;;;;23.90;57.00;;;;;;5035439;28;19928;-79
2022/06/28 12:11:36;;;;;;;;;;;24.00;56.90;;;;;;5036861;28;20470;-78
2022/06/28 12:14:07;;;;;;;;;;;24.00;56.70;;;;;;5038056;28;19936;-78
2022/06/28 12:16:34;;;;;;;;;;;24.00;56.90;;;;;;5035666;28;19968;-77
2022/06/28 12:19:04;;;;;;;;;;;24.20;56.90;;;;;;5038396;28;19925;-77
2022/06/28 12:21:31;;;;;;;;;;;24.20;56.70;;;;;;5038239;28;19928;-77
2022/06/28 12:23:58;;;;;;;;;;;24.20;56.30;;;;;;5039029;28;19932;-78
2022/06/28 12:26:37;;;;;;;;;;;24.30;57.00;;;;;;5040532;28;19932;-78
2022/06/28 12:29:04;;;;;;;;;;;24.30;56.70;;;;;;5038173;28;19932;-78
2022/06/28 12:31:30;;;;;;;;;;;24.40;55.80;;;;;;5037454;28;19936;-77
2022/06/28 12:33:57;;;;;;;;;;;24.50;55.70;;;;;;5037325;28;19936;-78
2022/06/28 12:36:25;;;;;;;;;;;24.50;55.90;;;;;;5038222;28;20063;-80
2022/06/28 12:38:52;;;;;;;;;;;24.60;55.10;;;;;;5039456;28;19929;-77
2022/06/28 12:41:18;;;;;;;;;;;24.60;54.90;;;;;;5042508;28;19932;-79
2022/06/28 12:43:45;;;;;;;;;;;24.70;54.70;;;;;;5039199;28;20386;-82
2022/06/28 12:46:11;;;;;;;;;;;24.70;54.90;;;;;;5050733;28;19940;-80
2022/06/28 12:48:38;;;;;;;;;;;24.70;55.60;;;;;;5043149;28;20431;-79
2022/06/28 12:51:04;;;;;;;;;;;24.80;55.50;;;;;;5048510;28;19939;-78
2022/06/28 12:53:32;;;;;;;;;;;24.90;55.50;;;;;;5037730;28;19925;-78
2022/06/28 12:55:59;;;;;;;;;;;24.90;55.20;;;;;;5039969;28;19928;-79
2022/06/28 12:58:26;;;;;;;;;;;24.90;55.10;;;;;;5045949;28;19929;-80
2022/06/28 13:00:53;;;;;;;;;;;25.00;54.70;;;;;;5039023;28;19940;-80
2022/06/28 13:03:20;;;;;;;;;;;25.00;54.50;;;;;;5041080;28;19935;-77
2022/06/28 13:05:47;;;;;;;;;;;25.10;54.70;;;;;;5037403;28;19956;-78
2022/06/28 13:08:14;;;;;;;;;;;25.10;54.50;;;;;;5033225;28;19937;-76
2022/06/28 13:10:42;;;;;;;;;;;25.20;54.70;;;;;;5042001;28;19935;-83
2022/06/28 13:13:08;;;;;;;;;;;25.20;55.10;;;;;;5038305;28;20377;-80
2022/06/28 13:15:35;;;;;;;;;;;25.30;54.80;;;;;;5035111;28;19935;-80
2022/06/28 13:18:01;;;;;;;;;;;25.30;54.30;;;;;;5040259;28;20509;-81
2022/06/28 13:20:28;;;;;;;;;;;25.30;54.50;;;;;;5045549;28;19935;-82
2022/06/28 13:22:55;;;;;;;;;;;25.40;54.10;;;;;;5038836;28;19932;-81
2022/06/28 13:25:22;;;;;;;;;;;25.40;53.70;;;;;;5040015;28;20019;-81
2022/06/28 13:27:49;;;;;;;;;;;25.40;54.40;;;;;;5032209;28;20880;-82
2022/06/28 13:30:16;;;;;;;;;;;25.50;54.20;;;;;;5036010;28;19933;-79
2022/06/28 13:32:43;;;;;;;;;;;25.50;54.70;;;;;;5034801;28;19929;-70
2022/06/28 13:35:09;;;;;;;;;;;25.60;54.50;;;;;;5041524;28;19929;-69
2022/06/28 13:37:36;;;;;;;;;;;25.60;53.90;;;;;;5041656;28;19932;-72
2022/06/28 13:40:03;;;;;;;;;;;25.70;54.20;;;;;;5042213;28;19928;-69
2022/06/28 13:42:30;;;;;;;;;;;25.70;54.50;;;;;;5041388;28;19929;-70
2022/06/28 13:44:58;;;;;;;;;;;25.80;54.10;;;;;;5042931;28;19924;-71
2022/06/28 13:47:24;;;;;;;;;;;25.80;54.20;;;;;;5041722;28;19932;-71
2022/06/28 13:49:51;;;;;;;;;;;25.90;53.90;;;;;;5038167;28;20428;-69
2022/06/28 13:52:17;;;;;;;;;;;25.90;53.60;;;;;;5039933;28;19940;-70
2022/06/28 13:54:44;;;;;;;;;;;25.90;53.90;;;;;;5039728;28;19936;-70
2022/06/28 13:57:10;;;;;;;;;;;25.90;54.20;;;;;;5040987;28;19936;-71
2022/06/28 13:59:37;;;;;;;;;;;26.00;53.60;;;;;;5042267;28;19935;-70
2022/06/28 14:02:05;;;;;;;;;;;26.10;53.50;;;;;;5041284;28;19963;-71
2022/06/28 14:04:32;;;;;;;;;;;26.10;52.40;;;;;;5040553;28;20863;-70
2022/06/28 14:06:58;;;;;;;;;;;26.10;52.30;;;;;;5036316;28;19928;-71
2022/06/28 14:09:25;;;;;;;;;;;26.20;53.20;;;;;;5041165;28;19939;-70
2022/06/28 14:11:52;;;;;;;;;;;26.20;52.80;;;;;;5039933;28;19929;-71
2022/06/28 14:14:18;;;;;;;;;;;26.30;53.20;;;;;;5038868;28;19929;-73
2022/06/28 14:16:45;;;;;;;;;;;26.30;52.00;;;;;;5037147;28;19940;-70
2022/06/28 14:19:13;;;;;;;;;;;26.30;52.30;;;;;;5040147;28;19933;-71
2022/06/28 14:21:40;;;;;;;;;;;26.40;52.20;;;;;;5036415;28;19929;-73
2022/06/28 14:24:07;;;;;;;;;;;26.40;52.20;;;;;;5036001;28;20010;-69
2022/06/28 14:26:34;;;;;;;;;;;26.40;52.20;;;;;;5038985;28;19936;-70
2022/06/28 14:29:01;;;;;;;;;;;26.50;52.50;;;;;;5041415;28;19939;-69
2022/06/28 14:31:28;;;;;;;;;;;26.60;53.10;;;;;;5038548;28;19929;-68